Time;durP1;ratioP1;P1;durP2;ratioP2;P2;SDS_P1;SDS_P2;PMS_P1;PMS_P2;Temp;Humidity;BMP_temperature;BMP_pressure;BME280_temperature;BME280_humidity;BME280_pressure;Samples;Min_cycle;Max_cycle;Signal;HPM_P1;HPM_P2
2023/01/13 00:01:25;;;;;;;;;;;;;;;;;;5087228;28;19924;-79
2023/01/13 00:03:59;;;;;;;;;;;;;;;;;;5081402;28;19924;-79
2023/01/13 00:06:31;;;;;;;;;;;;;;;;;;5082103;28;19939;-79
2023/01/13 00:09:04;;;;;;;;;;;;;;;;;;5079912;28;19928;-79
2023/01/13 00:11:36;;;;;;;;;;;;;;;;;;5074433;28;19924;-78
2023/01/13 00:14:04;;;;;;;;;;;;;;;;;;5082168;28;19928;-80
2023/01/13 00:16:37;;;;;;;;;;;;;;;;;;5084998;28;19924;-80
2023/01/13 00:19:09;;;;;;;;;;;;;;;;;;5097084;28;20364;-80
2023/01/13 00:21:42;;;;;;;;;;;;;;;;;;5080154;28;19931;-80
2023/01/13 00:24:10;;;;;;;;;;;;;;;;;;5081911;28;19924;-79
2023/01/13 00:26:42;;;;;;;;;;;;;;;;;;5080940;28;19929;-80
2023/01/13 00:29:15;;;;;;;;;;;;;;;;;;5080315;28;19925;-79
2023/01/13 00:31:48;;;;;;;;;;;;;;;;;;5082364;28;20541;-79
2023/01/13 00:34:15;;;;;;;;;;;;;;;;;;5084782;28;20349;-79
2023/01/13 00:36:43;;;;;;;;;;;;;;;;;;5080104;28;19951;-79
2023/01/13 00:39:16;;;;;;;;;;;;;;;;;;5084171;28;19924;-79
2023/01/13 00:44:34;;;;;;;;;;;;;;;;;;5088712;28;19931;-80
2023/01/13 00:47:01;;;;;;;;;;;;;;;;;;5083107;28;20300;-79
2023/01/13 00:49:29;;;;;;;;;;;;;;;;;;5080654;28;19931;-80
2023/01/13 00:51:56;;;;;;;;;;;;;;;;;;5077917;28;20361;-80
2023/01/13 00:54:29;;;;;;;;;;;;;;;;;;5084015;28;19924;-80
2023/01/13 00:57:02;;;;;;;;;;;;;;;;;;5088652;28;19942;-81
2023/01/13 00:59:29;;;;;;;;;;;;;;;;;;5086847;28;19932;-81
2023/01/13 01:01:57;;;;;;;;;;;;;;;;;;5082303;28;19931;-80
2023/01/13 01:04:30;;;;;;;;;;;;;;;;;;5095390;28;20281;-80
2023/01/13 01:06:57;;;;;;;;;;;;;;;;;;5081484;28;19924;-79
2023/01/13 01:09:32;;;;;;;;;;;;;;;;;;5081115;28;20383;-80
2023/01/13 01:12:04;;;;;;;;;;;;;;;;;;5084309;28;19928;-80
2023/01/13 01:14:32;;;;;;;;;;;;;;;;;;5080639;28;19932;-80
2023/01/13 01:17:04;;;;;;;;;;;;;;;;;;5085889;28;19928;-79
2023/01/13 01:19:36;;;;;;;;;;;;;;;;;;5086873;28;19943;-79
2023/01/13 01:22:08;;;;;;;;;;;;;;;;;;5082322;28;19935;-80
2023/01/13 01:24:41;;;;;;;;;;;;;;;;;;5081921;28;19924;-80
2023/01/13 01:27:13;;;;;;;;;;;;;;;;;;5083192;28;19928;-82
2023/01/13 01:29:41;;;;;;;;;;;;;;;;;;5071633;28;19925;-80
2023/01/13 01:32:13;;;;;;;;;;;;;;;;;;5079641;28;20305;-79
2023/01/13 01:34:41;;;;;;;;;;;;;;;;;;5085504;28;19931;-80
2023/01/13 01:37:13;;;;;;;;;;;;;;;;;;5084835;28;19928;-80
2023/01/13 01:39:46;;;;;;;;;;;;;;;;;;5092223;28;20316;-80
2023/01/13 01:45:09;;;;;;;;;;;;;;;;;;5086406;28;19948;-79
2023/01/13 01:47:42;;;;;;;;;;;;;;;;;;5101303;28;19928;-79
2023/01/13 01:50:14;;;;;;;;;;;;;;;;;;5082627;28;19928;-79
2023/01/13 01:52:42;;;;;;;;;;;;;;;;;;5084133;28;19940;-79
2023/01/13 01:55:14;;;;;;;;;;;;;;;;;;5087777;28;20521;-80
2023/01/13 01:57:42;;;;;;;;;;;;;;;;;;5077716;28;19936;-79
2023/01/13 02:00:09;;;;;;;;;;;;;;;;;;5083058;28;19924;-80
2023/01/13 02:02:40;;;;;;;;;;;;;;;;;;5087242;28;19939;-78
2023/01/13 02:05:12;;;;;;;;;;;;;;;;;;5091797;28;19928;-80
2023/01/13 02:07:45;;;;;;;;;;;;;;;;;;5085054;28;20545;-79
2023/01/13 02:10:18;;;;;;;;;;;;;;;;;;5075597;28;19924;-79
2023/01/13 02:12:50;;;;;;;;;;;;;;;;;;5083244;28;19928;-79
2023/01/13 02:15:23;;;;;;;;;;;;;;;;;;5082798;28;19928;-79
2023/01/13 02:17:50;;;;;;;;;;;;;;;;;;5082056;28;19935;-80
2023/01/13 02:20:23;;;;;;;;;;;;;;;;;;5100702;27;19928;-80
2023/01/13 02:22:50;;;;;;;;;;;;;;;;;;5084196;28;19928;-79
2023/01/13 02:25:22;;;;;;;;;;;;;;;;;;5100711;28;19928;-79
2023/01/13 02:27:49;;;;;;;;;;;;;;;;;;5083010;28;19924;-79
2023/01/13 02:33:07;;;;;;;;;;;;;;;;;;5084502;28;19924;-79
2023/01/13 02:35:40;;;;;;;;;;;;;;;;;;5084312;28;19924;-79
2023/01/13 02:38:07;;;;;;;;;;;;;;;;;;5089611;28;19924;-78
2023/01/13 02:40:35;;;;;;;;;;;;;;;;;;5082549;28;19931;-79
2023/01/13 02:45:53;;;;;;;;;;;;;;;;;;5082629;28;19928;-79
2023/01/13 02:48:25;;;;;;;;;;;;;;;;;;5085870;28;19928;-78
2023/01/13 02:50:58;;;;;;;;;;;;;;;;;;5083560;28;19931;-80
2023/01/13 02:53:30;;;;;;;;;;;;;;;;;;5073972;28;19928;-80
2023/01/13 02:55:58;;;;;;;;;;;;;;;;;;5083796;28;19932;-79
2023/01/13 02:58:25;;;;;;;;;;;;;;;;;;5090640;28;19928;-79
2023/01/13 03:00:58;;;;;;;;;;;;;;;;;;5081739;28;19924;-78
2023/01/13 03:03:25;;;;;;;;;;;;;;;;;;5090151;28;19951;-79
2023/01/13 03:05:58;;;;;;;;;;;;;;;;;;5084777;28;19929;-79
2023/01/13 03:08:25;;;;;;;;;;;;;;;;;;5083548;28;19936;-80
2023/01/13 03:10:58;;;;;;;;;;;;;;;;;;5083185;28;20273;-79
2023/01/13 03:13:30;;;;;;;;;;;;;;;;;;5082919;28;19943;-80
2023/01/13 03:15:58;;;;;;;;;;;;;;;;;;5085881;28;19931;-79
2023/01/13 03:18:25;;;;;;;;;;;;;;;;;;5087525;28;19935;-79
2023/01/13 03:20:53;;;;;;;;;;;;;;;;;;5084153;28;19928;-81
2023/01/13 03:23:20;;;;;;;;;;;;;;;;;;5082578;28;19928;-80
2023/01/13 03:25:53;;;;;;;;;;;;;;;;;;5091524;28;19928;-79
2023/01/13 03:28:20;;;;;;;;;;;;;;;;;;5081269;28;19925;-80
2023/01/13 03:30:53;;;;;;;;;;;;;;;;;;5082053;28;19935;-79
2023/01/13 03:33:25;;;;;;;;;;;;;;;;;;5090294;28;19931;-80
2023/01/13 03:35:53;;;;;;;;;;;;;;;;;;5078045;28;19929;-79
2023/01/13 03:38:20;;;;;;;;;;;;;;;;;;5082430;28;19931;-79
2023/01/13 03:40:53;;;;;;;;;;;;;;;;;;5085763;28;19940;-79
2023/01/13 03:46:10;;;;;;;;;;;;;;;;;;5081343;28;19924;-79
2023/01/13 03:48:43;;;;;;;;;;;;;;;;;;5074205;28;19940;-79
2023/01/13 03:51:11;;;;;;;;;;;;;;;;;;5079187;28;19928;-80
2023/01/13 03:53:44;;;;;;;;;;;;;;;;;;5079211;28;19938;-81
2023/01/13 03:56:11;;;;;;;;;;;;;;;;;;5079274;28;19929;-79
2023/01/13 03:58:39;;;;;;;;;;;;;;;;;;5082264;28;19924;-79
2023/01/13 04:01:11;;;;;;;;;;;;;;;;;;5080741;28;20319;-79
2023/01/13 04:03:39;;;;;;;;;;;;;;;;;;5078870;28;20284;-80
2023/01/13 04:06:11;;;;;;;;;;;;;;;;;;5088315;28;19928;-79
2023/01/13 04:08:39;;;;;;;;;;;;;;;;;;5079297;28;19928;-79
2023/01/13 04:11:12;;;;;;;;;;;;;;;;;;5082220;28;19924;-79
2023/01/13 04:13:44;;;;;;;;;;;;;;;;;;5082013;28;19935;-79
2023/01/13 04:16:12;;;;;;;;;;;;;;;;;;5080743;28;19929;-79
2023/01/13 04:18:44;;;;;;;;;;;;;;;;;;5086727;28;19932;-79
2023/01/13 04:21:12;;;;;;;;;;;;;;;;;;5079354;28;20373;-80
2023/01/13 04:23:44;;;;;;;;;;;;;;;;;;5079772;28;20388;-79
2023/01/13 04:26:12;;;;;;;;;;;;;;;;;;5088006;28;19928;-79
2023/01/13 04:28:39;;;;;;;;;;;;;;;;;;5080930;28;19935;-79
2023/01/13 04:31:12;;;;;;;;;;;;;;;;;;5079127;28;19932;-80
2023/01/13 04:33:40;;;;;;;;;;;;;;;;;;5079358;28;19939;-79
2023/01/13 04:36:07;;;;;;;;;;;;;;;;;;5088159;28;19924;-78
2023/01/13 04:38:35;;;;;;;;;;;;;;;;;;5075557;28;19933;-79
2023/01/13 04:41:02;;;;;;;;;;;;;;;;;;5079895;28;19924;-79
2023/01/13 04:43:35;;;;;;;;;;;;;;;;;;5083864;28;19932;-80
2023/01/13 04:46:02;;;;;;;;;;;;;;;;;;5088358;28;19924;-79
2023/01/13 04:48:30;;;;;;;;;;;;;;;;;;5088286;28;19936;-81
2023/01/13 04:51:02;;;;;;;;;;;;;;;;;;5080860;28;19931;-79
2023/01/13 04:53:30;;;;;;;;;;;;;;;;;;5072006;28;20373;-80
2023/01/13 04:55:57;;;;;;;;;;;;;;;;;;5082884;28;19925;-78
2023/01/13 04:58:24;;;;;;;;;;;;;;;;;;5078647;28;19932;-78
2023/01/13 05:00:57;;;;;;;;;;;;;;;;;;5087518;28;19999;-79
2023/01/13 05:03:25;;;;;;;;;;;;;;;;;;5083145;28;19935;-80
2023/01/13 05:05:58;;;;;;;;;;;;;;;;;;5087830;28;19924;-80
2023/01/13 05:08:25;;;;;;;;;;;;;;;;;;5081390;28;19925;-79
2023/01/13 05:10:58;;;;;;;;;;;;;;;;;;5083049;28;20433;-79
2023/01/13 05:19:08;;;;;;;;;;;;;;;;;;5068741;28;19939;-79
2023/01/13 05:27:17;;;;;;;;;;;;;;;;;;5076710;28;19932;-79
2023/01/13 05:29:44;;;;;;;;;;;;;;;;;;5079352;28;20443;-79
2023/01/13 05:32:17;;;;;;;;;;;;;;;;;;5084002;28;20277;-79
2023/01/13 05:34:44;;;;;;;;;;;;;;;;;;5084832;28;19951;-80
2023/01/13 05:37:12;;;;;;;;;;;;;;;;;;5086845;28;19963;-80
2023/01/13 05:45:11;;;;;;;;;;;;;;;;;;5078363;28;19928;-79
2023/01/13 05:47:43;;;;;;;;;;;;;;;;;;5077515;28;19924;-79
2023/01/13 05:50:16;;;;;;;;;;;;;;;;;;5081659;28;19928;-79
2023/01/13 05:52:43;;;;;;;;;;;;;;;;;;5087233;28;19936;-80
2023/01/13 05:55:16;;;;;;;;;;;;;;;;;;5078366;28;19928;-78
2023/01/13 05:57:43;;;;;;;;;;;;;;;;;;5080587;28;19925;-79
2023/01/13 06:00:11;;;;;;;;;;;;;;;;;;5081480;28;19925;-79
2023/01/13 06:02:39;;;;;;;;;;;;;;;;;;5075204;28;19935;-79
2023/01/13 06:05:11;;;;;;;;;;;;;;;;;;5078578;28;20387;-80
2023/01/13 06:07:44;;;;;;;;;;;;;;;;;;5082463;28;19924;-80
2023/01/13 06:10:16;;;;;;;;;;;;;;;;;;5088777;28;19939;-79
2023/01/13 06:12:49;;;;;;;;;;;;;;;;;;5083131;28;19924;-79
2023/01/13 06:15:16;;;;;;;;;;;;;;;;;;5085776;28;19935;-79
2023/01/13 06:17:44;;;;;;;;;;;;;;;;;;5079668;28;19924;-80
2023/01/13 06:20:11;;;;;;;;;;;;;;;;;;5079759;28;19924;-79
2023/01/13 06:22:44;;;;;;;;;;;;;;;;;;5087173;28;19931;-80
2023/01/13 06:25:12;;;;;;;;;;;;;;;;;;5080623;28;19929;-79
2023/01/13 06:27:44;;;;;;;;;;;;;;;;;;5081864;28;19931;-79
2023/01/13 06:30:12;;;;;;;;;;;;;;;;;;5083275;28;20596;-79
2023/01/13 06:32:39;;;;;;;;;;;;;;;;;;5089171;28;19931;-80
2023/01/13 06:35:07;;;;;;;;;;;;;;;;;;5089875;28;19928;-80
2023/01/13 06:37:34;;;;;;;;;;;;;;;;;;5097305;28;19925;-79
2023/01/13 06:40:07;;;;;;;;;;;;;;;;;;5085738;28;19924;-79
2023/01/13 06:45:27;;;;;;;;;;;;;;;;;;5073235;28;19928;-81
2023/01/13 06:47:55;;;;;;;;;;;;;;;;;;5098939;28;19925;-80
2023/01/13 06:50:23;;;;;;;;;;;;;;;;;;5087575;28;20274;-80
2023/01/13 06:52:53;;;;;;;;;;;;;;;;;;5088000;28;19924;-79
2023/01/13 06:55:26;;;;;;;;;;;;;;;;;;5082810;28;19928;-80
2023/01/13 06:57:58;;;;;;;;;;;;;;;;;;5088881;28;20323;-80
2023/01/13 07:00:26;;;;;;;;;;;;;;;;;;5082805;28;20288;-80
2023/01/13 07:02:58;;;;;;;;;;;;;;;;;;5082342;28;19932;-79
2023/01/13 07:05:31;;;;;;;;;;;;;;;;;;5086482;28;19935;-81
2023/01/13 07:08:03;;;;;;;;;;;;;;;;;;5083212;28;20312;-80
2023/01/13 07:10:36;;;;;;;;;;;;;;;;;;5079718;28;19935;-79
2023/01/13 07:16:05;;;;;;;;;;;;;;;;;;5040879;28;19924;-80
2023/01/13 07:18:33;;;;;;;;;;;;;;;;;;5068112;28;19935;-79
2023/01/13 07:21:05;;;;;;;;;;;;;;;;;;5074911;28;19931;-79
2023/01/13 07:23:33;;;;;;;;;;;;;;;;;;5082571;28;19928;-79
2023/01/13 07:26:00;;;;;;;;;;;;;;;;;;5092419;28;19924;-79
2023/01/13 07:28:28;;;;;;;;;;;;;;;;;;5090507;28;20294;-80
2023/01/13 07:31:00;;;;;;;;;;;;;;;;;;5080945;28;19931;-80
2023/01/13 07:33:31;;;;;;;;;;;;;;;;;;5085527;28;19934;-79
2023/01/13 07:35:59;;;;;;;;;;;;;;;;;;5101387;28;19928;-80
2023/01/13 07:38:26;;;;;;;;;;;;;;;;;;5080095;28;19931;-79
2023/01/13 07:40:54;;;;;;;;;;;;;;;;;;5079702;28;19935;-79
2023/01/13 07:43:31;;;;;;;;;;;;;;;;;;5085132;28;20276;-79
2023/01/13 07:46:04;;;;;;;;;;;;;;;;;;5075173;28;19939;-79
2023/01/13 07:48:36;;;;;;;;;;;;;;;;;;5080631;28;19928;-79
2023/01/13 07:51:06;;;;;;;;;;;;;;;;;;5083766;28;20396;-80
2023/01/13 07:53:38;;;;;;;;;;;;;;;;;;5083620;28;19939;-79
2023/01/13 07:56:11;;;;;;;;;;;;;;;;;;5080500;28;20396;-79
2023/01/13 07:58:43;;;;;;;;;;;;;;;;;;5073620;28;19935;-79
2023/01/13 08:01:16;;;;;;;;;;;;;;;;;;5082739;28;20573;-79
2023/01/13 08:03:48;;;;;;;;;;;;;;;;;;5097853;27;19943;-79
2023/01/13 08:06:21;;;;;;;;;;;;;;;;;;5079187;28;19925;-79
2023/01/13 08:08:49;;;;;;;;;;;;;;;;;;5080830;28;19928;-80
2023/01/13 08:11:16;;;;;;;;;;;;;;;;;;5090883;28;19939;-80
2023/01/13 08:13:48;;;;;;;;;;;;;;;;;;5086886;28;20572;-79
2023/01/13 08:16:16;;;;;;;;;;;;;;;;;;5082714;28;19924;-79
2023/01/13 08:18:49;;;;;;;;;;;;;;;;;;5081636;28;19928;-79
2023/01/13 08:21:16;;;;;;;;;;;;;;;;;;5085401;28;20274;-80
2023/01/13 08:23:44;;;;;;;;;;;;;;;;;;5081747;28;19950;-80
2023/01/13 08:26:11;;;;;;;;;;;;;;;;;;5083334;28;19925;-79
2023/01/13 08:28:40;;;;;;;;;;;;;;;;;;5082905;28;19935;-78
2023/01/13 08:31:12;;;;;;;;;;;;;;;;;;5086288;28;20301;-79
2023/01/13 08:33:45;;;;;;;;;;;;;;;;;;5087801;28;19931;-78
2023/01/13 08:36:13;;;;;;;;;;;;;;;;;;5070268;28;19933;-81
2023/01/13 08:38:40;;;;;;;;;;;;;;;;;;5080829;28;19924;-80
2023/01/13 08:41:13;;;;;;;;;;;;;;;;;;5076393;28;19932;-80
2023/01/13 08:43:45;;;;;;;;;;;;;;;;;;5078209;28;19931;-79
2023/01/13 08:46:18;;;;;;;;;;;;;;;;;;5078281;28;19931;-79
2023/01/13 08:48:45;;;;;;;;;;;;;;;;;;5080981;28;19931;-80
2023/01/13 08:51:13;;;;;;;;;;;;;;;;;;5082824;28;19924;-80
2023/01/13 08:53:40;;;;;;;;;;;;;;;;;;5081189;28;19924;-79
2023/01/13 08:56:13;;;;;;;;;;;;;;;;;;5064241;28;19931;-82
2023/01/13 08:58:46;;;;;;;;;;;;;;;;;;5076056;28;19925;-80
2023/01/13 09:01:18;;;;;;;;;;;;;;;;;;5056137;28;19932;-81
2023/01/13 09:03:46;;;;;;;;;;;;;;;;;;5063054;28;19939;-81
2023/01/13 09:06:13;;;;;;;;;;;;;;;;;;5059827;28;19932;-82
2023/01/13 09:08:41;;;;;;;;;;;;;;;;;;5063251;28;21226;-79
2023/01/13 09:14:00;;;;;;;;;;;;;;;;;;5063522;28;21264;-81
2023/01/13 09:16:33;;;;;;;;;;;;;;;;;;5064883;28;20524;-80
2023/01/13 09:19:00;;;;;;;;;;;;;;;;;;5062488;28;19940;-81
2023/01/13 09:21:33;;;;;;;;;;;;;;;;;;5063853;28;19939;-81
2023/01/13 09:24:00;;;;;;;;;;;;;;;;;;5070565;28;19935;-81
2023/01/13 09:26:28;;;;;;;;;;;;;;;;;;5073382;28;19932;-82
2023/01/13 09:28:55;;;;;;;;;;;;;;;;;;5071557;28;20292;-80
2023/01/13 09:31:28;;;;;;;;;;;;;;;;;;5070793;28;19932;-79
2023/01/13 09:36:46;;;;;;;;;;;;;;;;;;5068329;28;19932;-83
2023/01/13 09:39:18;;;;;;;;;;;;;;;;;;5061545;28;19949;-81
2023/01/13 09:44:36;;;;;;;;;;;;;;;;;;5066187;28;19935;-79
2023/01/13 09:47:04;;;;;;;;;;;;;;;;;;5065078;28;20232;-80
2023/01/13 09:49:31;;;;;;;;;;;;;;;;;;5065340;28;19939;-80
2023/01/13 09:51:59;;;;;;;;;;;;;;;;;;5062296;28;20576;-79
2023/01/13 09:54:31;;;;;;;;;;;;;;;;;;5064084;28;19952;-80
2023/01/13 09:57:04;;;;;;;;;;;;;;;;;;5061595;28;19932;-81
2023/01/13 09:59:35;;;;;;;;;;;;;;;;;;5063392;28;19939;-82
2023/01/13 10:02:02;;;;;;;;;;;;;;;;;;5069723;28;19925;-82
2023/01/13 10:04:30;;;;;;;;;;;;;;;;;;5071603;28;19932;-81
2023/01/13 10:07:07;;;;;;;;;;;;;;;;;;5064342;28;19948;-81
2023/01/13 10:09:40;;;;;;;;;;;;;;;;;;5067690;28;19928;-81
2023/01/13 10:14:57;;;;;;;;;;;;;;;;;;5070290;28;19939;-80
2023/01/13 10:17:30;;;;;;;;;;;;;;;;;;5067855;28;19939;-81
2023/01/13 10:20:02;;;;;;;;;;;;;;;;;;5063225;28;21115;-80
2023/01/13 10:22:35;;;;;;;;;;;;;;;;;;5065722;28;20473;-79
2023/01/13 10:25:03;;;;;;;;;;;;;;;;;;5065651;28;20048;-80
2023/01/13 10:27:35;;;;;;;;;;;;;;;;;;5069108;28;19932;-80
2023/01/13 10:30:08;;;;;;;;;;;;;;;;;;5072448;27;19932;-80
2023/01/13 10:32:35;;;;;;;;;;;;;;;;;;5069669;28;19932;-81
2023/01/13 10:35:08;;;;;;;;;;;;;;;;;;5070537;28;19932;-81
2023/01/13 10:37:41;;;;;;;;;;;;;;;;;;5069502;28;20385;-81
2023/01/13 10:40:08;;;;;;;;;;;;;;;;;;5070388;28;21748;-79
2023/01/13 10:42:41;;;;;;;;;;;;;;;;;;5067360;28;19932;-80
2023/01/13 10:45:10;;;;;;;;;;;;;;;;;;5062957;28;19943;-80
2023/01/13 10:47:42;;;;;;;;;;;;;;;;;;5069325;28;19932;-81
2023/01/13 10:50:10;;;;;;;;;;;;;;;;;;5064932;28;19932;-80
2023/01/13 10:52:40;;;;;;;;;;;;;;;;;;5072625;28;20149;-81
2023/01/13 10:55:12;;;;;;;;;;;;;;;;;;5063678;28;19932;-81
2023/01/13 10:57:40;;;;;;;;;;;;;;;;;;5067680;28;20316;-84
2023/01/13 11:00:12;;;;;;;;;;;;;;;;;;5060734;28;20312;-80
2023/01/13 11:02:40;;;;;;;;;;;;;;;;;;5058778;28;20304;-80
2023/01/13 11:05:07;;;;;;;;;;;;;;;;;;5066045;28;20044;-82
2023/01/13 11:07:40;;;;;;;;;;;;;;;;;;5060497;28;20474;-79
2023/01/13 11:10:07;;;;;;;;;;;;;;;;;;5061659;28;20269;-82
2023/01/13 11:12:40;;;;;;;;;;;;;;;;;;5059902;28;19932;-80
2023/01/13 11:15:07;;;;;;;;;;;;;;;;;;5060863;28;19932;-81
2023/01/13 11:17:36;;;;;;;;;;;;;;;;;;5061436;28;19932;-81
2023/01/13 11:20:08;;;;;;;;;;;;;;;;;;5058307;28;19939;-80
2023/01/13 11:22:41;;;;;;;;;;;;;;;;;;5061208;28;19939;-80
2023/01/13 11:25:11;;;;;;;;;;;;;;;;;;5058783;28;19932;-80
2023/01/13 11:27:38;;;;;;;;;;;;;;;;;;5056600;28;19938;-82
2023/01/13 11:30:08;;;;;;;;;;;;;;;;;;5063751;28;19932;-80
2023/01/13 11:32:41;;;;;;;;;;;;;;;;;;5062142;28;19939;-80
2023/01/13 11:35:14;;;;;;;;;;;;;;;;;;5065968;28;19936;-82
2023/01/13 11:37:46;;;;;;;;;;;;;;;;;;5063145;28;19932;-79
2023/01/13 11:40:19;;;;;;;;;;;;;;;;;;5065300;28;19932;-82
2023/01/13 11:42:53;;;;;;;;;;;;;;;;;;5059480;28;19931;-82
2023/01/13 11:45:25;;;;;;;;;;;;;;;;;;5063453;28;19936;-80
2023/01/13 11:47:53;;;;;;;;;;;;;;;;;;5063383;28;19932;-80
2023/01/13 11:50:20;;;;;;;;;;;;;;;;;;5063522;28;19932;-81
2023/01/13 11:52:53;;;;;;;;;;;;;;;;;;5065250;28;19932;-80
2023/01/13 11:55:20;;;;;;;;;;;;;;;;;;5058687;28;19932;-81
2023/01/13 11:57:53;;;;;;;;;;;;;;;;;;5062947;28;20043;-80
2023/01/13 12:00:26;;;;;;;;;;;;;;;;;;5063094;28;19932;-81
2023/01/13 12:02:59;;;;;;;;;;;;;;;;;;5063990;28;20137;-80
2023/01/13 12:05:26;;;;;;;;;;;;;;;;;;5060271;28;19939;-81
2023/01/13 12:07:54;;;;;;;;;;;;;;;;;;5059482;28;20901;-80
2023/01/13 12:10:28;;;;;;;;;;;;;;;;;;5064491;28;19943;-80
2023/01/13 12:12:56;;;;;;;;;;;;;;;;;;5061391;28;19932;-81
2023/01/13 12:15:28;;;;;;;;;;;;;;;;;;5065540;28;19932;-81
2023/01/13 12:17:56;;;;;;;;;;;;;;;;;;5063850;28;19932;-81
2023/01/13 12:20:28;;;;;;;;;;;;;;;;;;5061032;28;19932;-81
2023/01/13 12:22:56;;;;;;;;;;;;;;;;;;5067649;28;19943;-80
2023/01/13 12:25:29;;;;;;;;;;;;;;;;;;5065124;28;19939;-80
2023/01/13 12:28:01;;;;;;;;;;;;;;;;;;5064161;28;19932;-80
2023/01/13 12:30:29;;;;;;;;;;;;;;;;;;5058310;28;19952;-80
2023/01/13 12:33:01;;;;;;;;;;;;;;;;;;5059113;28;19994;-80
2023/01/13 12:35:29;;;;;;;;;;;;;;;;;;5064214;28;19935;-80
2023/01/13 12:38:01;;;;;;;;;;;;;;;;;;5060711;28;19932;-80
2023/01/13 12:40:29;;;;;;;;;;;;;;;;;;5057434;28;19931;-78
2023/01/13 12:45:47;;;;;;;;;;;;;;;;;;5056768;28;19940;-82
2023/01/13 12:48:14;;;;;;;;;;;;;;;;;;5058750;28;19932;-81
2023/01/13 12:50:42;;;;;;;;;;;;;;;;;;5059260;28;19932;-80
2023/01/13 12:53:10;;;;;;;;;;;;;;;;;;5058830;28;19932;-80
2023/01/13 12:55:42;;;;;;;;;;;;;;;;;;5056748;28;20379;-80
2023/01/13 12:58:15;;;;;;;;;;;;;;;;;;5062144;28;19932;-81
2023/01/13 13:00:48;;;;;;;;;;;;;;;;;;5070968;28;19936;-80
2023/01/13 13:03:16;;;;;;;;;;;;;;;;;;5062106;28;19932;-81
2023/01/13 13:05:49;;;;;;;;;;;;;;;;;;5068819;28;19935;-81
2023/01/13 13:08:25;;;;;;;;;;;;;;;;;;5064982;28;19931;-80
2023/01/13 13:10:53;;;;;;;;;;;;;;;;;;5065720;28;19928;-80
2023/01/13 13:13:20;;;;;;;;;;;;;;;;;;5063973;28;20122;-79
2023/01/13 13:15:54;;;;;;;;;;;;;;;;;;5056253;28;19973;-79
2023/01/13 13:18:23;;;;;;;;;;;;;;;;;;5055848;28;19939;-80
2023/01/13 13:20:52;;;;;;;;;;;;;;;;;;5063636;28;20339;-80
2023/01/13 13:23:20;;;;;;;;;;;;;;;;;;5066586;28;21153;-81
2023/01/13 13:25:53;;;;;;;;;;;;;;;;;;5061320;28;19959;-82
2023/01/13 13:28:25;;;;;;;;;;;;;;;;;;5066883;28;19932;-80
2023/01/13 13:30:53;;;;;;;;;;;;;;;;;;5070383;28;19932;-81
2023/01/13 13:33:25;;;;;;;;;;;;;;;;;;5074116;28;19931;-82
2023/01/13 13:35:58;;;;;;;;;;;;;;;;;;5065940;28;19932;-83
2023/01/13 13:46:47;;;;;;;;;;;;;;;;;;5042892;28;19932;-83
2023/01/13 13:49:20;;;;;;;;;;;;;;;;;;5067879;28;19948;-82
2023/01/13 13:51:48;;;;;;;;;;;;;;;;;;5067751;28;19932;-84
2023/01/13 13:54:16;;;;;;;;;;;;;;;;;;5065758;28;19932;-82
2023/01/13 13:56:43;;;;;;;;;;;;;;;;;;5066727;28;19923;-82
2023/01/13 13:59:11;;;;;;;;;;;;;;;;;;5062811;28;20457;-83
2023/01/13 14:01:44;;;;;;;;;;;;;;;;;;5063046;28;19935;-82
2023/01/13 14:04:16;;;;;;;;;;;;;;;;;;5070876;28;19940;-82
2023/01/13 14:06:44;;;;;;;;;;;;;;;;;;5063816;28;19924;-81
2023/01/13 14:09:12;;;;;;;;;;;;;;;;;;5067730;28;20565;-81
2023/01/13 14:11:44;;;;;;;;;;;;;;;;;;5075636;28;19994;-82
2023/01/13 14:14:12;;;;;;;;;;;;;;;;;;5066228;28;19924;-81
2023/01/13 14:16:45;;;;;;;;;;;;;;;;;;5066431;28;19946;-84
2023/01/13 14:19:17;;;;;;;;;;;;;;;;;;5067354;28;19932;-82
2023/01/13 14:21:45;;;;;;;;;;;;;;;;;;5067547;28;19924;-82
2023/01/13 14:24:19;;;;;;;;;;;;;;;;;;5066177;28;19947;-81
2023/01/13 14:26:52;;;;;;;;;;;;;;;;;;5073865;28;19932;-80
2023/01/13 14:29:19;;;;;;;;;;;;;;;;;;5067656;28;19935;-81
2023/01/13 14:31:47;;;;;;;;;;;;;;;;;;5067944;28;19939;-83
2023/01/13 14:34:19;;;;;;;;;;;;;;;;;;5067874;28;20479;-82
2023/01/13 14:36:49;;;;;;;;;;;;;;;;;;5067648;28;19943;-82
2023/01/13 14:39:22;;;;;;;;;;;;;;;;;;5070302;28;19939;-82
2023/01/13 14:41:54;;;;;;;;;;;;;;;;;;5067463;28;19932;-82
2023/01/13 14:44:23;;;;;;;;;;;;;;;;;;5068772;28;19978;-81
2023/01/13 14:46:56;;;;;;;;;;;;;;;;;;5063838;28;19931;-82
2023/01/13 14:49:28;;;;;;;;;;;;;;;;;;5067515;28;19939;-81
2023/01/13 14:52:01;;;;;;;;;;;;;;;;;;5070289;28;19932;-83
2023/01/13 14:54:33;;;;;;;;;;;;;;;;;;5073944;28;20292;-83
2023/01/13 14:57:07;;;;;;;;;;;;;;;;;;5067649;28;19932;-82
2023/01/13 14:59:40;;;;;;;;;;;;;;;;;;5070761;28;19947;-80
2023/01/13 15:02:07;;;;;;;;;;;;;;;;;;5069563;28;19947;-82
2023/01/13 15:04:40;;;;;;;;;;;;;;;;;;5067903;28;19932;-82
2023/01/13 15:07:07;;;;;;;;;;;;;;;;;;5064756;28;19939;-82
2023/01/13 15:09:35;;;;;;;;;;;;;;;;;;5068879;28;19932;-85
2023/01/13 15:12:02;;;;;;;;;;;;;;;;;;5066667;28;19932;-81
2023/01/13 15:14:32;;;;;;;;;;;;;;;;;;5066734;28;19935;-83
2023/01/13 15:17:05;;;;;;;;;;;;;;;;;;5068443;28;20803;-81
2023/01/13 15:19:32;;;;;;;;;;;;;;;;;;5070882;28;20109;-82
2023/01/13 15:22:05;;;;;;;;;;;;;;;;;;5074575;28;19932;-82
2023/01/13 15:24:37;;;;;;;;;;;;;;;;;;5066102;28;20465;-81
2023/01/13 15:27:10;;;;;;;;;;;;;;;;;;5066085;28;20343;-81
2023/01/13 15:29:37;;;;;;;;;;;;;;;;;;5065592;28;19940;-79
2023/01/13 15:32:04;;;;;;;;;;;;;;;;;;5067276;28;19932;-82
2023/01/13 15:34:32;;;;;;;;;;;;;;;;;;5072581;28;19932;-82
2023/01/13 15:37:00;;;;;;;;;;;;;;;;;;5071586;28;19932;-81
2023/01/13 15:39:32;;;;;;;;;;;;;;;;;;5070601;28;19932;-81
2023/01/13 15:47:35;;;;;;;;;;;;;;;;;;5069492;28;19939;-82
2023/01/13 15:50:03;;;;;;;;;;;;;;;;;;5064577;28;21363;-83
2023/01/13 15:52:35;;;;;;;;;;;;;;;;;;5066281;28;19932;-83
2023/01/13 15:55:08;;;;;;;;;;;;;;;;;;5069857;28;19935;-88
2023/01/13 15:57:40;;;;;;;;;;;;;;;;;;5068977;28;19939;-81
2023/01/13 16:00:13;;;;;;;;;;;;;;;;;;5065580;28;20380;-85
2023/01/13 16:02:40;;;;;;;;;;;;;;;;;;5071822;28;19990;-84
2023/01/13 16:05:09;;;;;;;;;;;;;;;;;;5065143;28;20351;-82
2023/01/13 16:07:36;;;;;;;;;;;;;;;;;;5063662;28;20426;-84
2023/01/13 16:10:09;;;;;;;;;;;;;;;;;;5055519;28;19932;-82
2023/01/13 16:12:41;;;;;;;;;;;;;;;;;;5060287;28;19939;-84
2023/01/13 16:15:09;;;;;;;;;;;;;;;;;;5064274;28;19935;-87
2023/01/13 16:17:41;;;;;;;;;;;;;;;;;;5064618;28;20408;-84
2023/01/13 16:20:09;;;;;;;;;;;;;;;;;;5069781;28;19932;-84
2023/01/13 16:22:41;;;;;;;;;;;;;;;;;;5067010;28;20461;-82
2023/01/13 16:25:09;;;;;;;;;;;;;;;;;;5062977;28;20528;-84
2023/01/13 16:27:36;;;;;;;;;;;;;;;;;;5062439;28;19946;-83
2023/01/13 16:30:04;;;;;;;;;;;;;;;;;;5065433;28;19932;-82
2023/01/13 16:32:31;;;;;;;;;;;;;;;;;;5068256;28;20473;-84
2023/01/13 16:34:59;;;;;;;;;;;;;;;;;;5058738;28;19932;-82
2023/01/13 16:37:31;;;;;;;;;;;;;;;;;;5060550;28;19932;-84
2023/01/13 16:40:04;;;;;;;;;;;;;;;;;;5065459;28;19939;-84
2023/01/13 16:42:32;;;;;;;;;;;;;;;;;;5060743;28;19931;-85
2023/01/13 16:45:04;;;;;;;;;;;;;;;;;;5059812;28;19932;-84
2023/01/13 16:47:32;;;;;;;;;;;;;;;;;;5061129;28;19932;-86
2023/01/13 16:50:04;;;;;;;;;;;;;;;;;;5068823;28;20324;-85
2023/01/13 16:52:32;;;;;;;;;;;;;;;;;;5069874;28;19939;-87
2023/01/13 16:55:00;;;;;;;;;;;;;;;;;;5065413;28;19939;-86
2023/01/13 16:57:27;;;;;;;;;;;;;;;;;;5069645;28;19931;-87
2023/01/13 17:00:00;;;;;;;;;;;;;;;;;;5059145;28;19932;-84
2023/01/13 17:02:32;;;;;;;;;;;;;;;;;;5067228;28;19932;-86
2023/01/13 17:05:05;;;;;;;;;;;;;;;;;;5068215;28;19932;-84
2023/01/13 17:07:38;;;;;;;;;;;;;;;;;;5070288;28;19943;-86
2023/01/13 17:10:10;;;;;;;;;;;;;;;;;;5066650;28;20496;-83
2023/01/13 17:12:43;;;;;;;;;;;;;;;;;;5066281;28;19932;-86
2023/01/13 17:15:15;;;;;;;;;;;;;;;;;;5057331;28;19981;-86
2023/01/13 17:17:50;;;;;;;;;;;;;;;;;;5064819;28;19939;-84
2023/01/13 17:20:23;;;;;;;;;;;;;;;;;;5065161;28;19939;-83
2023/01/13 17:22:53;;;;;;;;;;;;;;;;;;5067407;28;19932;-88
2023/01/13 17:25:21;;;;;;;;;;;;;;;;;;5059643;28;19932;-85
2023/01/13 17:27:54;;;;;;;;;;;;;;;;;;5060724;28;19939;-84
2023/01/13 17:30:27;;;;;;;;;;;;;;;;;;5068097;28;19933;-86
2023/01/13 17:32:54;;;;;;;;;;;;;;;;;;5060699;28;19939;-85
2023/01/13 17:35:26;;;;;;;;;;;;;;;;;;5062388;28;19936;-81
2023/01/13 17:37:54;;;;;;;;;;;;;;;;;;5063021;28;19935;-83
2023/01/13 17:40:27;;;;;;;;;;;;;;;;;;5064442;28;19947;-87
2023/01/13 17:42:56;;;;;;;;;;;;;;;;;;5072209;28;19999;-89
2023/01/13 17:45:28;;;;;;;;;;;;;;;;;;5066138;28;19932;-81
2023/01/13 17:47:57;;;;;;;;;;;;;;;;;;5061633;28;19932;-83
2023/01/13 17:50:26;;;;;;;;;;;;;;;;;;5063371;28;19932;-85
2023/01/13 17:52:54;;;;;;;;;;;;;;;;;;5064294;28;20382;-83
2023/01/13 17:55:26;;;;;;;;;;;;;;;;;;5065849;28;19939;-83
2023/01/13 17:57:59;;;;;;;;;;;;;;;;;;5064806;28;19932;-87
2023/01/13 18:00:32;;;;;;;;;;;;;;;;;;5071208;28;20045;-84
2023/01/13 18:03:00;;;;;;;;;;;;;;;;;;5065532;28;19943;-84
2023/01/13 18:05:27;;;;;;;;;;;;;;;;;;5059070;28;19967;-85
2023/01/13 18:07:55;;;;;;;;;;;;;;;;;;5060186;28;19932;-83
2023/01/13 18:10:23;;;;;;;;;;;;;;;;;;5062810;28;20367;-82